Parkin, Arkansas
Current Conditions -  °F | °C
As of 5:53 AM on Wednesday 28 Jan 2015 (Local Time) from KAWM Reporting Station
Clear Clear  
Wind Chill: -2°   Ceiling: Unl
Heat Index:   Visibility: 10mi
Dew Point: -1°   Wind: 8mph
Humidity: 82%   Direction: 120°ESE
Pressure: 30.26"   Gusts: NA
Location:  35.26°N, 90.57°W
Report Text: KAWM 281153Z AUTO 12007KT 10SM CLR 02/M01 A3026 RMK AO2 SLP247 T00171011 10033 20000 51013
Loading
Personal Weather Stations






























Interactive Weather Map New forecast layout! Learn more

10-Day Weather Forecast

Advertisements
Track Severe Weather on mobile